createdAt,value
2018-11-23T00:01:28.649Z,91.87
2018-11-23T00:03:59.043Z,87.67
2018-11-23T00:06:29.504Z,89.10
2018-11-23T00:08:59.779Z,90.27
2018-11-23T00:11:30.193Z,83.60
2018-11-23T00:14:00.542Z,88.20
2018-11-23T00:16:30.845Z,87.20
2018-11-23T00:19:01.106Z,88.60
2018-11-23T00:21:31.483Z,86.93
2018-11-23T00:24:01.942Z,89.57
2018-11-23T00:26:32.216Z,90.03
2018-11-23T00:29:02.593Z,76.43
2018-11-23T00:31:32.961Z,88.87
2018-11-23T00:34:03.345Z,80.63
2018-11-23T00:36:33.851Z,68.43
2018-11-23T00:39:04.482Z,89.17
2018-11-23T00:41:35.007Z,77.03
2018-11-23T00:44:05.848Z,79.20
2018-11-23T00:46:36.055Z,73.37
2018-11-23T00:49:06.548Z,76.13
2018-11-23T00:51:36.951Z,65.97
2018-11-23T00:54:07.254Z,83.00
2018-11-23T00:56:38.289Z,69.50
2018-11-23T00:59:08.511Z,73.87
2018-11-23T01:01:43.941Z,66.70
2018-11-23T01:04:14.294Z,63.63
2018-11-23T01:06:44.613Z,67.13
2018-11-23T01:09:15.807Z,65.73
2018-11-23T01:11:46.187Z,64.27
2018-11-23T01:14:16.536Z,65.17
2018-11-23T01:16:47.127Z,65.40
2018-11-23T01:19:17.313Z,57.43
2018-11-23T01:21:47.668Z,72.10
2018-11-23T01:24:18.092Z,75.50
2018-11-23T01:26:48.433Z,74.10
2018-11-23T01:29:21.561Z,72.63
2018-11-23T01:31:51.948Z,65.60
2018-11-23T01:34:22.404Z,78.10
2018-11-23T01:36:52.712Z,63.83
2018-11-23T01:39:22.916Z,68.13
2018-11-23T01:41:53.346Z,71.10
2018-11-23T01:44:23.826Z,77.17
2018-11-23T01:46:54.082Z,70.83
2018-11-23T01:49:24.556Z,65.57
2018-11-23T01:51:54.828Z,57.87
2018-11-23T01:54:25.295Z,63.20
2018-11-23T01:56:55.543Z,62.03
2018-11-23T01:59:25.825Z,57.53
2018-11-23T02:01:56.349Z,76.73
2018-11-23T02:04:26.713Z,73.63
2018-11-23T02:06:57.107Z,80.33
2018-11-23T02:09:27.497Z,67.10
2018-11-23T02:11:57.867Z,74.63
2018-11-23T02:14:28.183Z,72.20
2018-11-23T02:16:58.479Z,68.67
2018-11-23T02:19:29.443Z,71.00
2018-11-23T02:21:59.676Z,72.60
2018-11-23T02:24:30.019Z,70.50
2018-11-23T02:27:00.490Z,65.80
2018-11-23T02:29:30.830Z,68.97
2018-11-23T02:32:01.040Z,67.37
2018-11-23T02:34:31.353Z,71.17
2018-11-23T02:37:01.556Z,80.43
2018-11-23T02:39:31.837Z,81.90
2018-11-23T02:42:02.060Z,82.13
2018-11-23T02:44:32.502Z,79.97
2018-11-23T02:47:02.982Z,78.33
2018-11-23T02:49:33.564Z,79.23
2018-11-23T02:52:03.971Z,71.70
2018-11-23T02:54:34.300Z,73.47
2018-11-23T02:57:04.632Z,74.50
2018-11-23T02:59:34.963Z,82.17
2018-11-23T03:02:05.367Z,78.67
2018-11-23T03:04:35.707Z,85.73
2018-11-23T03:07:06.121Z,98.00
2018-11-23T03:09:36.481Z,83.20
2018-11-23T03:12:06.842Z,78.00
2018-11-23T03:14:37.213Z,87.30
2018-11-23T03:17:07.788Z,84.97
2018-11-23T03:19:38.183Z,70.13
2018-11-23T03:22:08.551Z,72.00
2018-11-23T03:24:38.730Z,74.40
2018-11-23T03:27:08.943Z,79.63
2018-11-23T03:29:39.296Z,79.30
2018-11-23T03:32:09.675Z,74.77
2018-11-23T03:34:40.130Z,80.90
2018-11-23T03:37:10.563Z,79.93
2018-11-23T03:39:41.050Z,74.30
2018-11-23T03:42:11.559Z,77.07
2018-11-23T03:44:41.908Z,72.60
2018-11-23T03:47:12.342Z,68.03
2018-11-23T03:49:42.880Z,82.77
2018-11-23T03:52:13.127Z,60.93
2018-11-23T03:54:43.534Z,67.57
2018-11-23T03:57:13.829Z,78.40
2018-11-23T03:59:44.439Z,65.90
2018-11-23T04:02:14.648Z,65.37
2018-11-23T04:04:44.946Z,77.33
2018-11-23T04:07:15.353Z,69.77
2018-11-23T04:09:46.356Z,68.37
2018-11-23T04:12:16.599Z,65.87
2018-11-23T04:14:47.002Z,64.20
2018-11-23T04:17:17.260Z,56.63
2018-11-23T04:19:47.836Z,65.73
2018-11-23T04:22:19.225Z,63.53
2018-11-23T04:24:48.595Z,59.93
2018-11-23T04:27:19.071Z,71.87
2018-11-23T04:29:49.642Z,57.20
2018-11-23T04:32:19.869Z,61.97
2018-11-23T04:34:50.310Z,56.17
2018-11-23T04:37:20.797Z,55.17
2018-11-23T04:39:51.179Z,60.17
2018-11-23T04:42:21.297Z,54.83
2018-11-23T04:44:51.794Z,58.50
2018-11-23T04:47:22.185Z,65.93
2018-11-23T04:49:52.431Z,51.37
2018-11-23T04:52:22.712Z,57.50
2018-11-23T04:54:53.167Z,53.87
2018-11-23T04:57:23.584Z,58.37
2018-11-23T04:59:54.197Z,64.93
2018-11-23T05:02:24.424Z,52.40
2018-11-23T05:04:54.861Z,61.23
2018-11-23T05:07:25.184Z,60.23
2018-11-23T05:09:55.488Z,66.87
2018-11-23T05:12:25.839Z,52.80
2018-11-23T05:14:56.308Z,55.27
2018-11-23T05:17:26.600Z,51.33
2018-11-23T05:19:56.955Z,56.83
2018-11-23T05:22:27.449Z,47.53
2018-11-23T05:24:58.017Z,56.30
2018-11-23T05:27:28.170Z,48.30
2018-11-23T05:29:58.557Z,46.67
2018-11-23T05:32:28.956Z,41.33
2018-11-23T05:34:59.716Z,45.00
2018-11-23T05:37:29.960Z,48.17
2018-11-23T05:40:00.309Z,46.33
2018-11-23T05:42:30.775Z,53.20
2018-11-23T05:45:01.134Z,45.67
2018-11-23T05:47:31.273Z,42.27
2018-11-23T05:50:01.725Z,41.47
2018-11-23T05:52:32.066Z,44.63
2018-11-23T05:55:02.316Z,50.63
2018-11-23T05:57:32.786Z,48.07
2018-11-23T06:00:03.064Z,50.83
2018-11-23T06:02:34.116Z,57.07
2018-11-23T06:05:04.567Z,43.47
2018-11-23T06:07:34.873Z,43.43
2018-11-23T06:10:06.442Z,44.87
2018-11-23T06:12:36.687Z,50.20
2018-11-23T06:15:09.213Z,41.37
2018-11-23T06:17:39.503Z,48.20
2018-11-23T06:20:12.940Z,43.53
2018-11-23T06:22:44.013Z,45.90
2018-11-23T06:25:51.573Z,53.07
2018-11-23T06:28:21.765Z,41.80
2018-11-23T06:30:52.130Z,48.47
2018-11-23T06:33:36.851Z,47.10
2018-11-23T06:36:07.315Z,45.23
2018-11-23T06:38:37.527Z,41.60
2018-11-23T06:41:10.481Z,43.23
2018-11-23T06:43:39.391Z,46.40
2018-11-23T06:46:11.838Z,45.00
2018-11-23T06:48:42.408Z,46.13
2018-11-23T06:51:12.741Z,49.03
2018-11-23T06:53:43.043Z,47.47
2018-11-23T06:56:13.573Z,46.97
2018-11-23T06:58:43.985Z,41.20
2018-11-23T07:01:14.509Z,50.57
2018-11-23T07:03:44.830Z,46.60
2018-11-23T07:06:15.306Z,53.97
2018-11-23T07:08:45.467Z,49.73
2018-11-23T07:11:15.942Z,54.53
2018-11-23T07:13:46.339Z,53.83
2018-11-23T07:16:16.659Z,43.30
2018-11-23T07:18:46.980Z,51.13
2018-11-23T07:21:21.444Z,56.47
2018-11-23T07:23:47.646Z,59.17
2018-11-23T07:26:18.104Z,57.63
2018-11-23T07:28:48.522Z,51.73
2018-11-23T07:31:19.100Z,62.30
2018-11-23T07:33:49.448Z,60.67
2018-11-23T07:36:19.769Z,74.03
2018-11-23T07:38:50.030Z,65.73
2018-11-23T07:42:08.161Z,71.83
2018-11-23T07:44:38.579Z,73.67
2018-11-23T07:47:08.921Z,67.87
2018-11-23T07:49:39.110Z,66.57
2018-11-23T07:52:09.652Z,69.43
2018-11-23T07:54:40.444Z,56.37
2018-11-23T07:57:11.092Z,56.80
2018-11-23T07:59:41.448Z,59.10
2018-11-23T08:02:12.882Z,66.50
2018-11-23T08:04:44.013Z,56.50
2018-11-23T08:07:14.368Z,65.70
2018-11-23T08:09:44.892Z,65.90
2018-11-23T08:12:15.450Z,57.40
2018-11-23T08:14:45.604Z,57.87
2018-11-23T08:17:16.096Z,56.27
2018-11-23T08:19:47.395Z,62.70
2018-11-23T08:22:16.970Z,49.33
2018-11-23T08:24:47.251Z,54.10
2018-11-23T08:27:17.559Z,55.30
2018-11-23T08:29:48.016Z,51.47
2018-11-23T08:32:18.348Z,59.00
2018-11-23T08:34:48.756Z,54.07
2018-11-23T08:37:19.056Z,49.50
2018-11-23T08:39:49.410Z,52.50
2018-11-23T08:42:19.885Z,48.13
2018-11-23T08:44:50.163Z,51.97
2018-11-23T08:47:20.377Z,50.83
2018-11-23T08:49:50.856Z,48.60
2018-11-23T08:52:21.025Z,48.60
2018-11-23T08:54:51.308Z,47.00
2018-11-23T08:57:21.739Z,46.23
2018-11-23T08:59:52.103Z,52.93
2018-11-23T09:02:22.343Z,44.43
2018-11-23T09:04:52.823Z,48.67
2018-11-23T09:07:23.229Z,50.67
2018-11-23T09:09:53.817Z,49.43
2018-11-23T09:12:24.274Z,48.63
2018-11-23T09:14:54.540Z,48.03
2018-11-23T09:17:25.006Z,45.77
2018-11-23T09:19:55.343Z,46.27
2018-11-23T09:22:25.878Z,56.43
2018-11-23T09:24:56.182Z,57.07
2018-11-23T09:27:27.348Z,46.33
2018-11-23T09:29:57.539Z,62.13
2018-11-23T09:32:28.013Z,55.70
2018-11-23T09:34:58.540Z,56.00
2018-11-23T09:37:29.048Z,54.73
2018-11-23T09:39:59.209Z,60.00
2018-11-23T09:42:29.685Z,50.43
2018-11-23T09:45:00.108Z,52.13
2018-11-23T09:47:30.460Z,53.43
2018-11-23T09:50:00.642Z,50.57
2018-11-23T09:52:30.967Z,51.70
2018-11-23T09:55:01.324Z,48.07
2018-11-23T09:57:31.556Z,40.17
2018-11-23T10:00:01.787Z,44.67
2018-11-23T10:02:32.008Z,52.83
2018-11-23T10:05:02.348Z,52.67
2018-11-23T10:07:32.731Z,46.23
2018-11-23T10:10:03.080Z,41.00
2018-11-23T10:12:33.344Z,38.50
2018-11-23T10:15:03.698Z,44.50
2018-11-23T10:17:34.220Z,46.80
2018-11-23T10:20:05.111Z,44.27
2018-11-23T10:22:35.732Z,43.93
2018-11-23T10:25:07.092Z,38.03
2018-11-23T10:27:37.646Z,40.80
2018-11-23T10:30:17.096Z,42.47
2018-11-23T10:32:48.445Z,42.20
2018-11-23T10:35:19.100Z,42.30
2018-11-23T10:37:50.875Z,43.60
2018-11-23T10:40:22.977Z,38.23
2018-11-23T10:42:53.353Z,34.30
2018-11-23T10:45:25.548Z,38.33
2018-11-23T10:47:56.445Z,37.47
2018-11-23T10:50:28.382Z,47.17
2018-11-23T10:52:58.902Z,41.10
2018-11-23T10:55:30.764Z,39.13
2018-11-23T10:58:01.054Z,40.30
2018-11-23T11:00:36.565Z,40.50
2018-11-23T11:03:42.230Z,40.30
2018-11-23T11:06:17.521Z,42.03
2018-11-23T11:08:47.875Z,33.33
2018-11-23T11:11:18.215Z,32.10
2018-11-23T11:13:48.575Z,32.53
2018-11-23T11:16:19.071Z,34.83
2018-11-23T11:18:49.539Z,34.70
2018-11-23T11:21:19.947Z,32.13
2018-11-23T11:23:50.224Z,37.17
2018-11-23T11:26:20.601Z,35.07
2018-11-23T11:28:50.958Z,31.87
2018-11-23T11:31:21.398Z,41.93
2018-11-23T11:33:51.789Z,33.83
2018-11-23T11:36:22.067Z,40.43
2018-11-23T11:38:52.430Z,32.67
2018-11-23T11:41:22.941Z,30.50
2018-11-23T11:43:53.276Z,30.97
2018-11-23T11:46:23.577Z,40.83
2018-11-23T11:48:53.988Z,39.60
2018-11-23T11:51:24.352Z,40.03
2018-11-23T11:53:54.691Z,30.80
2018-11-23T11:56:24.985Z,28.97
2018-11-23T11:58:55.407Z,38.87
2018-11-23T12:01:26.921Z,33.53
2018-11-23T12:03:57.970Z,31.80
2018-11-23T12:06:28.211Z,28.30
2018-11-23T12:08:59.195Z,33.80
2018-11-23T12:11:29.709Z,34.20
2018-11-23T12:14:00.100Z,29.20
2018-11-23T12:16:30.602Z,31.20
2018-11-23T12:19:00.818Z,26.50
2018-11-23T12:21:31.193Z,32.50
2018-11-23T12:24:01.668Z,34.17
2018-11-23T12:26:31.776Z,30.13
2018-11-23T12:29:02.211Z,30.37
2018-11-23T12:31:32.359Z,29.73
2018-11-23T12:34:02.761Z,26.37
2018-11-23T12:36:33.152Z,23.70
2018-11-23T12:39:03.512Z,28.07
2018-11-23T12:41:33.933Z,29.70
2018-11-23T12:44:04.363Z,26.10
2018-11-23T12:46:34.522Z,32.53
2018-11-23T12:49:05.352Z,29.43
2018-11-23T12:51:35.792Z,33.00
2018-11-23T12:54:06.696Z,26.37
2018-11-23T12:56:37.109Z,25.43
2018-11-23T12:59:07.503Z,26.37
2018-11-23T13:01:43.264Z,26.77
2018-11-23T13:04:13.726Z,27.07
2018-11-23T13:06:44.223Z,31.93
2018-11-23T13:09:14.730Z,26.67
2018-11-23T13:11:44.979Z,26.10
2018-11-23T13:14:15.460Z,28.87
2018-11-23T13:16:45.796Z,26.30
2018-11-23T13:19:16.333Z,24.80
2018-11-23T13:21:46.708Z,27.63
2018-11-23T13:24:17.230Z,26.67
2018-11-23T13:26:47.494Z,21.80
2018-11-23T13:29:18.104Z,24.03
2018-11-23T13:31:48.349Z,27.77
2018-11-23T13:34:18.669Z,23.33
2018-11-23T13:36:48.946Z,26.83
2018-11-23T13:39:19.351Z,30.17
2018-11-23T13:41:49.589Z,26.50
2018-11-23T13:44:19.999Z,28.77
2018-11-23T13:46:50.336Z,21.37
2018-11-23T13:49:20.850Z,30.00
2018-11-23T13:51:51.175Z,28.97
2018-11-23T13:54:21.545Z,29.07
2018-11-23T13:56:52.413Z,28.73
2018-11-23T13:59:22.814Z,29.37
2018-11-23T14:01:53.305Z,26.33
2018-11-23T14:04:23.874Z,32.80
2018-11-23T14:06:54.030Z,24.27
2018-11-23T14:09:24.926Z,24.23
2018-11-23T14:11:55.244Z,24.03
2018-11-23T14:14:25.507Z,26.00
2018-11-23T14:16:55.901Z,29.13
2018-11-23T14:19:26.231Z,32.60
2018-11-23T14:21:56.685Z,24.63
2018-11-23T14:24:27.214Z,23.83
2018-11-23T14:26:57.595Z,25.23
2018-11-23T14:29:28.065Z,28.27
2018-11-23T14:31:58.454Z,31.23
2018-11-23T14:34:28.991Z,24.80
2018-11-23T14:36:59.239Z,26.33
2018-11-23T14:39:29.755Z,26.47
2018-11-23T14:42:00.169Z,23.03
2018-11-23T14:44:30.321Z,37.23
2018-11-23T14:47:00.777Z,27.30
2018-11-23T14:49:31.232Z,26.77
2018-11-23T14:52:02.252Z,30.07
2018-11-23T14:54:32.657Z,31.17
2018-11-23T14:57:03.030Z,28.03
2018-11-23T14:59:33.252Z,34.47
2018-11-23T15:02:04.211Z,30.10
2018-11-23T15:04:34.515Z,28.67
2018-11-23T15:07:05.002Z,31.93
2018-11-23T15:09:35.525Z,30.70
2018-11-23T15:12:06.102Z,33.73
2018-11-23T15:14:36.648Z,33.17
2018-11-23T15:17:07.024Z,30.43
2018-11-23T15:19:37.280Z,27.60
2018-11-23T15:22:07.843Z,28.50
2018-11-23T15:24:38.244Z,33.97
2018-11-23T15:27:08.746Z,30.73
2018-11-23T15:29:39.117Z,31.43
2018-11-23T15:32:09.464Z,37.00
2018-11-23T15:34:39.873Z,34.37
2018-11-23T15:37:10.498Z,28.50
2018-11-23T15:39:40.802Z,27.73
2018-11-23T15:42:11.074Z,25.37
2018-11-23T15:44:41.477Z,29.70
2018-11-23T15:47:11.861Z,30.40
2018-11-23T15:49:42.240Z,34.73
2018-11-23T15:52:33.605Z,38.00
2018-11-23T15:55:06.317Z,35.00
2018-11-23T15:57:36.725Z,28.40
2018-11-23T16:00:14.430Z,28.93
2018-11-23T16:02:45.537Z,28.27
2018-11-23T16:05:15.992Z,30.07
2018-11-23T16:07:46.523Z,38.43
2018-11-23T16:10:23.352Z,33.33
2018-11-23T16:12:54.857Z,45.73
2018-11-23T16:15:26.079Z,30.47
2018-11-23T16:17:57.021Z,28.47
2018-11-23T16:20:30.143Z,31.30
2018-11-23T16:23:02.788Z,34.30
2018-11-23T16:25:32.957Z,32.03
2018-11-23T16:28:04.634Z,35.33
2018-11-23T16:30:37.496Z,31.10
2018-11-23T16:33:09.380Z,34.80
2018-11-23T16:35:40.490Z,36.87
2018-11-23T16:38:12.966Z,31.10
2018-11-23T16:40:44.983Z,28.90
2018-11-23T16:43:16.109Z,28.50
2018-11-23T16:45:46.957Z,33.83
2018-11-23T16:48:18.198Z,31.17
2018-11-23T16:50:48.579Z,31.93
2018-11-23T16:53:18.733Z,29.60
2018-11-23T16:55:48.973Z,31.40
2018-11-23T16:58:19.349Z,26.03
2018-11-23T17:00:49.832Z,24.60
2018-11-23T17:03:21.361Z,32.57
2018-11-23T17:05:53.952Z,33.17
2018-11-23T17:08:24.340Z,32.20
2018-11-23T17:10:54.784Z,36.50
2018-11-23T17:13:25.357Z,33.30
2018-11-23T17:15:55.550Z,35.83
2018-11-23T17:18:26.069Z,31.90
2018-11-23T17:20:59.291Z,32.40
2018-11-23T17:23:29.259Z,38.73
2018-11-23T17:26:01.148Z,37.40
2018-11-23T17:28:55.917Z,32.30
2018-11-23T17:31:48.819Z,37.07
2018-11-23T17:34:36.200Z,36.23
2018-11-23T17:37:35.318Z,37.03
2018-11-23T17:40:35.995Z,36.97
2018-11-23T17:43:28.924Z,38.13
2018-11-23T17:46:25.782Z,36.63
2018-11-23T17:49:23.907Z,39.27
2018-11-23T17:52:10.903Z,42.43
2018-11-23T17:54:48.140Z,37.20
2018-11-23T17:57:44.054Z,44.37
2018-11-23T18:00:45.519Z,37.87
2018-11-23T18:03:45.540Z,40.53
2018-11-23T18:06:37.198Z,45.53
2018-11-23T18:09:32.721Z,42.83
2018-11-23T18:12:26.912Z,46.50
2018-11-23T18:15:26.685Z,53.40
2018-11-23T18:18:21.111Z,47.37
2018-11-23T18:21:19.657Z,44.67
2018-11-23T18:24:14.158Z,38.87
2018-11-23T18:27:15.869Z,44.53
2018-11-23T18:30:12.693Z,46.23
2018-11-23T18:32:43.912Z,43.50
2018-11-23T18:35:15.076Z,40.07
2018-11-23T18:37:45.510Z,38.47
2018-11-23T18:40:16.052Z,44.03
2018-11-23T18:42:46.577Z,43.23
2018-11-23T18:45:16.862Z,46.23
2018-11-23T18:47:47.119Z,48.70
2018-11-23T18:50:19.220Z,45.27
2018-11-23T18:52:49.461Z,44.10
2018-11-23T18:55:20.060Z,41.13
2018-11-23T18:57:50.445Z,44.30
2018-11-23T19:00:20.819Z,40.40
2018-11-23T19:02:51.064Z,42.60
2018-11-23T19:05:23.731Z,45.50
2018-11-23T19:07:54.225Z,50.93
2018-11-23T19:10:24.686Z,43.10
2018-11-23T19:12:54.986Z,43.67
2018-11-23T19:15:29.542Z,44.60
2018-11-23T19:18:03.617Z,51.60
2018-11-23T19:20:36.845Z,42.40
2018-11-23T19:23:11.080Z,39.80
2018-11-23T19:25:46.392Z,38.70
2018-11-23T19:28:19.196Z,35.47
2018-11-23T19:30:52.248Z,44.13
2018-11-23T19:33:25.999Z,39.07
2018-11-23T19:35:59.477Z,39.27
2018-11-23T19:38:33.382Z,43.10
2018-11-23T19:41:04.961Z,46.33
2018-11-23T19:43:35.414Z,44.90
2018-11-23T19:46:09.533Z,50.30
2018-11-23T19:48:45.584Z,49.37
2018-11-23T19:51:16.424Z,42.03
2018-11-23T19:53:49.932Z,44.43
2018-11-23T19:56:22.306Z,51.73
2018-11-23T19:58:52.582Z,42.37
2018-11-23T20:01:23.084Z,40.07
2018-11-23T20:03:53.380Z,41.77
2018-11-23T20:06:23.695Z,43.53
2018-11-23T20:08:54.120Z,36.30
2018-11-23T20:11:24.568Z,40.93
2018-11-23T20:13:55.015Z,48.90
2018-11-23T20:16:26.343Z,38.13
2018-11-23T20:18:56.675Z,46.43
2018-11-23T20:21:27.027Z,45.20
2018-11-23T20:23:57.337Z,44.30
2018-11-23T20:26:27.922Z,43.40
2018-11-23T20:28:58.306Z,41.87
2018-11-23T20:31:28.475Z,46.70
2018-11-23T20:33:58.911Z,46.20
2018-11-23T20:36:29.599Z,47.50
2018-11-23T20:38:59.857Z,47.07
2018-11-23T20:41:30.287Z,50.53
2018-11-23T20:44:00.590Z,45.53
2018-11-23T20:46:30.944Z,46.27
2018-11-23T20:49:01.259Z,43.87
2018-11-23T20:51:31.664Z,52.37
2018-11-23T20:54:01.876Z,45.60
2018-11-23T20:56:32.271Z,49.03
2018-11-23T20:59:02.696Z,48.43
2018-11-23T21:01:33.357Z,45.20
2018-11-23T21:04:03.889Z,49.70
2018-11-23T21:06:34.169Z,51.13
2018-11-23T21:09:06.672Z,50.87
2018-11-23T21:11:37.007Z,48.13
2018-11-23T21:14:07.691Z,50.70
2018-11-23T21:16:38.219Z,54.93
2018-11-23T21:19:08.646Z,57.30
2018-11-23T21:21:38.912Z,46.97
2018-11-23T21:24:09.277Z,54.03
2018-11-23T21:26:39.769Z,54.87
2018-11-23T21:29:10.285Z,55.73
2018-11-23T21:31:40.513Z,58.43
2018-11-23T21:34:10.901Z,49.93
2018-11-23T21:36:41.481Z,49.40
2018-11-23T21:39:13.680Z,57.40
2018-11-23T21:41:43.044Z,56.97
2018-11-23T21:44:13.592Z,48.80
2018-11-23T21:46:44.197Z,56.77
2018-11-23T21:49:14.487Z,52.50
2018-11-23T21:51:45.399Z,55.70
2018-11-23T21:54:15.787Z,50.87
2018-11-23T21:56:46.224Z,52.17
2018-11-23T21:59:16.868Z,61.80
2018-11-23T22:01:47.418Z,57.50
2018-11-23T22:04:17.842Z,50.60
2018-11-23T22:06:48.748Z,53.83
2018-11-23T22:09:19.211Z,58.80
2018-11-23T22:11:52.474Z,57.03
2018-11-23T22:14:25.218Z,57.53
2018-11-23T22:16:55.892Z,62.77
2018-11-23T22:19:26.525Z,61.70
2018-11-23T22:21:56.871Z,50.57
2018-11-23T22:24:27.301Z,59.20
2018-11-23T22:26:57.878Z,59.70
2018-11-23T22:29:28.114Z,56.80
2018-11-23T22:31:58.395Z,51.33
2018-11-23T22:34:28.836Z,62.20
2018-11-23T22:36:59.024Z,64.13
2018-11-23T22:39:29.350Z,62.40
2018-11-23T22:41:59.843Z,56.67
2018-11-23T22:44:30.011Z,61.40
2018-11-23T22:47:06.309Z,54.33
2018-11-23T22:49:37.391Z,57.67
2018-11-23T22:52:07.782Z,61.47
2018-11-23T22:54:38.219Z,64.83
2018-11-23T22:57:11.829Z,61.93
2018-11-23T22:59:39.014Z,55.77
2018-11-23T23:02:29.996Z,58.33
2018-11-23T23:05:25.009Z,60.33
2018-11-23T23:08:23.623Z,61.77
2018-11-23T23:11:13.359Z,61.63
2018-11-23T23:14:16.565Z,60.77
2018-11-23T23:17:11.505Z,59.53
2018-11-23T23:20:16.152Z,69.83
2018-11-23T23:23:18.316Z,62.77
2018-11-23T23:26:10.607Z,62.37
2018-11-23T23:29:11.436Z,63.13
2018-11-23T23:32:06.983Z,58.13
2018-11-23T23:34:56.980Z,65.20
2018-11-23T23:37:53.142Z,63.40
2018-11-23T23:40:53.860Z,60.03
2018-11-23T23:43:52.247Z,55.43
2018-11-23T23:46:52.611Z,62.57
2018-11-23T23:49:52.356Z,59.40
2018-11-23T23:52:55.871Z,56.60
2018-11-23T23:55:52.125Z,57.93
2018-11-23T23:58:48.024Z,52.27
